createdAt,value
2018-11-29T00:00:31.817Z,81.41
2018-11-29T00:03:00.228Z,82.23
2018-11-29T00:05:28.046Z,82.42
2018-11-29T00:07:55.858Z,81.82
2018-11-29T00:10:23.638Z,81.29
2018-11-29T00:12:51.487Z,82.02
2018-11-29T00:15:19.358Z,82.20
2018-11-29T00:17:47.172Z,82.28
2018-11-29T00:20:16.606Z,81.57
2018-11-29T00:22:45.232Z,81.99
2018-11-29T00:25:13.883Z,80.76
2018-11-29T00:27:41.838Z,81.81
2018-11-29T00:30:11.033Z,81.84
2018-11-29T00:32:38.968Z,81.40
2018-11-29T00:35:08.299Z,79.54
2018-11-29T00:37:36.183Z,82.26
2018-11-29T00:40:05.289Z,81.96
2018-11-29T00:42:33.056Z,82.01
2018-11-29T00:45:00.815Z,81.68
2018-11-29T00:47:28.593Z,81.57
2018-11-29T00:49:56.423Z,82.19
2018-11-29T00:52:24.174Z,82.16
2018-11-29T00:54:51.945Z,81.86
2018-11-29T00:57:19.785Z,80.32
2018-11-29T00:59:47.595Z,82.40
2018-11-29T01:02:15.399Z,80.77
2018-11-29T01:04:43.149Z,82.42
2018-11-29T01:07:10.897Z,82.55
2018-11-29T01:09:38.689Z,82.10
2018-11-29T01:12:06.483Z,81.07
2018-11-29T01:14:34.325Z,82.56
2018-11-29T01:17:02.197Z,80.89
2018-11-29T01:19:30.010Z,81.37
2018-11-29T01:21:58.444Z,82.10
2018-11-29T01:24:26.302Z,82.09
2018-11-29T01:26:54.133Z,81.22
2018-11-29T01:29:21.957Z,80.30
2018-11-29T01:31:49.781Z,82.06
2018-11-29T01:34:17.584Z,81.36
2018-11-29T01:36:45.452Z,81.03
2018-11-29T01:39:17.037Z,80.89
2018-11-29T01:41:44.889Z,81.93
2018-11-29T01:44:13.628Z,82.41
2018-11-29T01:46:41.984Z,82.52
2018-11-29T01:49:09.820Z,82.94
2018-11-29T01:51:38.323Z,81.16
2018-11-29T01:54:06.149Z,82.55
2018-11-29T01:56:34.030Z,82.92
2018-11-29T01:59:02.996Z,83.23
2018-11-29T02:01:30.791Z,82.53
2018-11-29T02:03:58.669Z,80.86
2018-11-29T02:06:26.537Z,79.53
2018-11-29T02:08:54.313Z,81.71
2018-11-29T02:11:22.102Z,81.81
2018-11-29T02:13:49.985Z,82.01
2018-11-29T02:16:17.844Z,82.04
2018-11-29T02:18:45.710Z,82.20
2018-11-29T02:21:13.796Z,81.48
2018-11-29T02:23:41.612Z,81.67
2018-11-29T02:26:09.413Z,81.67
2018-11-29T02:28:37.214Z,82.47
2018-11-29T02:31:05.079Z,81.92
2018-11-29T02:33:32.817Z,82.87
2018-11-29T02:36:00.641Z,81.04
2018-11-29T02:38:28.452Z,82.34
2018-11-29T02:40:56.309Z,82.96
2018-11-29T02:43:24.103Z,82.06
2018-11-29T02:45:51.945Z,82.58
2018-11-29T02:48:19.801Z,81.43
2018-11-29T02:50:48.505Z,82.84
2018-11-29T02:53:17.122Z,82.64
2018-11-29T02:55:45.231Z,81.71
2018-11-29T02:58:13.770Z,82.38
2018-11-29T03:00:41.598Z,82.26
2018-11-29T03:03:09.395Z,82.62
2018-11-29T03:05:37.212Z,82.52
2018-11-29T03:08:05.133Z,82.15
2018-11-29T03:10:32.937Z,82.99
2018-11-29T03:13:00.716Z,83.05
2018-11-29T03:15:28.540Z,81.92
2018-11-29T03:17:56.371Z,80.92
2018-11-29T03:20:24.251Z,82.26
2018-11-29T03:22:52.067Z,81.41
2018-11-29T03:25:21.501Z,81.84
2018-11-29T03:27:49.334Z,82.20
2018-11-29T03:30:19.328Z,81.42
2018-11-29T03:32:47.088Z,82.52
2018-11-29T03:35:15.120Z,81.66
2018-11-29T03:37:43.893Z,81.12
2018-11-29T03:40:15.642Z,80.40
2018-11-29T03:42:43.915Z,82.02
2018-11-29T03:45:12.733Z,82.06
2018-11-29T03:47:40.685Z,81.92
2018-11-29T03:50:13.890Z,81.10
2018-11-29T03:52:41.797Z,82.64
2018-11-29T03:55:10.134Z,81.36
2018-11-29T03:57:38.608Z,81.85
2018-11-29T04:00:23.077Z,81.80
2018-11-29T04:02:50.864Z,81.37
2018-11-29T04:05:18.742Z,81.91
2018-11-29T04:07:46.613Z,81.99
2018-11-29T04:10:16.581Z,81.60
2018-11-29T04:12:44.374Z,81.25
2018-11-29T04:15:13.231Z,81.99
2018-11-29T04:17:41.454Z,82.63
2018-11-29T04:20:14.112Z,82.30
2018-11-29T04:22:42.112Z,82.56
2018-11-29T04:25:11.044Z,82.50
2018-11-29T04:27:38.892Z,82.35
2018-11-29T04:30:09.249Z,83.15
2018-11-29T04:32:37.818Z,82.53
2018-11-29T04:35:06.885Z,82.63
2018-11-29T04:37:34.738Z,82.55
2018-11-29T04:40:02.655Z,83.33
2018-11-29T04:42:30.484Z,81.78
2018-11-29T04:44:58.305Z,82.40
2018-11-29T04:47:26.098Z,83.00
2018-11-29T04:49:53.936Z,82.54
2018-11-29T04:52:21.770Z,83.06
2018-11-29T04:54:49.553Z,82.13
2018-11-29T04:57:17.411Z,83.23
2018-11-29T04:59:45.722Z,82.20
2018-11-29T05:02:13.591Z,83.14
2018-11-29T05:04:41.445Z,82.12
2018-11-29T05:07:09.229Z,82.58
2018-11-29T05:09:37.006Z,82.35
2018-11-29T05:12:04.964Z,82.65
2018-11-29T05:14:32.824Z,82.47
2018-11-29T05:17:00.635Z,82.19
2018-11-29T05:19:28.457Z,81.50
2018-11-29T05:21:57.153Z,81.82
2018-11-29T05:24:25.527Z,79.55
2018-11-29T05:26:53.378Z,82.28
2018-11-29T05:29:21.204Z,82.93
2018-11-29T05:31:49.625Z,82.40
2018-11-29T05:34:17.448Z,82.32
2018-11-29T05:36:45.225Z,80.34
2018-11-29T05:39:12.984Z,82.10
2018-11-29T05:41:40.781Z,81.96
2018-11-29T05:44:09.278Z,82.06
2018-11-29T05:46:37.043Z,81.63
2018-11-29T05:49:04.871Z,81.92
2018-11-29T05:51:33.536Z,82.45
2018-11-29T05:54:01.341Z,79.64
2018-11-29T05:56:29.248Z,81.97
2018-11-29T05:58:57.071Z,82.32
2018-11-29T06:01:29.120Z,82.34
2018-11-29T06:03:56.935Z,83.13
2018-11-29T06:06:24.723Z,82.96
2018-11-29T06:08:52.532Z,83.36
2018-11-29T06:11:21.433Z,81.85
2018-11-29T06:13:49.257Z,83.08
2018-11-29T06:16:17.038Z,82.79
2018-11-29T06:18:44.889Z,82.12
2018-11-29T06:21:12.688Z,82.50
2018-11-29T06:23:40.603Z,82.00
2018-11-29T06:26:08.478Z,82.01
2018-11-29T06:28:36.921Z,82.79
2018-11-29T06:31:05.079Z,80.94
2018-11-29T06:33:32.848Z,79.46
2018-11-29T06:36:02.143Z,82.37
2018-11-29T06:38:28.531Z,82.65
2018-11-29T06:40:56.360Z,82.82
2018-11-29T06:43:24.831Z,80.68
2018-11-29T06:45:52.599Z,82.14
2018-11-29T06:48:20.393Z,81.46
2018-11-29T06:50:48.195Z,81.60
2018-11-29T06:53:21.616Z,82.69
2018-11-29T06:55:49.411Z,82.42
2018-11-29T06:58:17.155Z,79.36
2018-11-29T07:00:45.039Z,82.31
2018-11-29T07:03:12.836Z,81.82
2018-11-29T07:05:40.660Z,81.40
2018-11-29T07:08:08.763Z,81.82
2018-11-29T07:10:36.684Z,81.75
2018-11-29T07:13:06.296Z,81.87
2018-11-29T07:15:34.100Z,81.21
2018-11-29T07:18:04.238Z,82.30
2018-11-29T07:20:32.124Z,82.27
2018-11-29T07:22:59.987Z,81.55
2018-11-29T07:25:27.838Z,82.59
2018-11-29T07:27:55.636Z,81.43
2018-11-29T07:30:23.769Z,81.79
2018-11-29T07:32:54.500Z,82.77
2018-11-29T07:35:23.244Z,81.66
2018-11-29T07:37:51.723Z,82.62
2018-11-29T07:40:20.698Z,82.76
2018-11-29T07:42:51.691Z,82.09
2018-11-29T07:45:21.365Z,82.28
2018-11-29T07:47:49.545Z,82.72
2018-11-29T07:50:21.108Z,82.27
2018-11-29T07:52:49.226Z,82.54
2018-11-29T07:55:19.213Z,80.21
2018-11-29T07:57:48.113Z,81.33
2018-11-29T08:00:16.470Z,82.63
2018-11-29T08:02:44.474Z,83.07
2018-11-29T08:05:13.363Z,82.69
2018-11-29T08:07:47.310Z,82.77
2018-11-29T08:10:14.093Z,82.22
2018-11-29T08:12:41.915Z,83.34
2018-11-29T08:15:11.575Z,83.08
2018-11-29T08:17:41.426Z,81.58
2018-11-29T08:20:13.626Z,81.43
2018-11-29T08:22:41.433Z,82.16
2018-11-29T08:25:10.168Z,82.12
2018-11-29T08:27:38.054Z,81.40
2018-11-29T08:30:07.970Z,81.24
2018-11-29T08:32:35.995Z,81.97
2018-11-29T08:35:04.533Z,81.87
2018-11-29T08:37:32.400Z,81.36
2018-11-29T08:40:00.184Z,80.93
2018-11-29T08:42:28.724Z,81.44
2018-11-29T08:44:56.491Z,81.26
2018-11-29T08:47:24.956Z,81.26
2018-11-29T08:49:52.842Z,81.08
2018-11-29T08:52:20.625Z,81.47
2018-11-29T08:54:48.419Z,80.61
2018-11-29T08:57:16.299Z,80.11
2018-11-29T08:59:44.119Z,80.60
2018-11-29T09:02:11.976Z,80.58
2018-11-29T09:04:39.776Z,80.79
2018-11-29T09:07:07.686Z,80.99
2018-11-29T09:09:35.555Z,79.85
2018-11-29T09:12:03.433Z,80.94
2018-11-29T09:14:31.296Z,80.88
2018-11-29T09:16:59.117Z,79.73
2018-11-29T09:19:26.887Z,80.20
2018-11-29T09:21:54.775Z,80.73
2018-11-29T09:24:22.623Z,79.91
2018-11-29T09:26:50.451Z,79.56
2018-11-29T09:29:18.239Z,80.59
2018-11-29T09:31:46.048Z,79.86
2018-11-29T09:34:13.896Z,80.25
2018-11-29T09:36:41.689Z,79.97
2018-11-29T09:39:09.605Z,80.25
2018-11-29T09:41:37.636Z,80.15
2018-11-29T09:44:05.649Z,80.05
2018-11-29T09:46:36.582Z,80.41
2018-11-29T09:49:08.019Z,80.72
2018-11-29T09:52:01.442Z,80.73
2018-11-29T09:54:30.084Z,79.73
2018-11-29T09:56:59.217Z,79.68
2018-11-29T09:59:28.842Z,80.15
2018-11-29T10:01:57.809Z,79.80
2018-11-29T10:04:25.651Z,80.05
2018-11-29T10:06:54.543Z,80.50
2018-11-29T10:09:23.347Z,80.42
2018-11-29T10:11:51.149Z,79.00
2018-11-29T10:14:19.798Z,80.44
2018-11-29T10:16:48.307Z,80.23
2018-11-29T10:19:17.901Z,78.95
2018-11-29T10:21:46.664Z,78.83
2018-11-29T10:24:14.522Z,78.80
2018-11-29T10:26:42.308Z,79.18
2018-11-29T10:29:10.137Z,79.53
2018-11-29T10:31:38.289Z,79.72
2018-11-29T10:34:16.230Z,80.02
2018-11-29T10:36:46.465Z,79.71
2018-11-29T10:39:14.473Z,78.33
2018-11-29T10:41:42.301Z,79.47
2018-11-29T10:44:10.139Z,80.18
2018-11-29T10:46:38.283Z,78.78
2018-11-29T10:49:06.519Z,79.96
2018-11-29T10:51:34.309Z,79.13
2018-11-29T10:54:03.107Z,79.43
2018-11-29T10:56:30.996Z,78.96
2018-11-29T10:58:58.780Z,79.53
2018-11-29T11:02:29.953Z,78.27
2018-11-29T11:04:57.919Z,78.71
2018-11-29T11:07:25.803Z,80.45
2018-11-29T11:09:53.722Z,80.05
2018-11-29T11:12:21.573Z,80.00
2018-11-29T11:14:49.400Z,78.63
2018-11-29T11:17:17.245Z,78.84
2018-11-29T11:19:45.109Z,80.15
2018-11-29T11:22:12.968Z,79.29
2018-11-29T11:24:41.172Z,79.83
2018-11-29T11:27:09.005Z,79.40
2018-11-29T11:29:36.781Z,79.92
2018-11-29T11:32:04.629Z,79.93
2018-11-29T11:34:32.979Z,79.90
2018-11-29T11:37:00.784Z,80.08
2018-11-29T11:39:28.547Z,80.41
2018-11-29T11:41:56.304Z,80.08
2018-11-29T11:44:24.132Z,79.11
2018-11-29T11:46:51.941Z,79.85
2018-11-29T11:49:20.284Z,79.89
2018-11-29T11:51:48.061Z,79.86
2018-11-29T11:54:18.120Z,80.37
2018-11-29T11:56:49.978Z,80.45
2018-11-29T11:59:17.882Z,80.00
2018-11-29T12:01:46.670Z,80.58
2018-11-29T12:04:15.805Z,80.26
2018-11-29T12:06:43.705Z,80.15
2018-11-29T12:09:12.355Z,80.12
2018-11-29T12:11:40.204Z,80.48
2018-11-29T12:14:09.923Z,80.46
2018-11-29T12:16:39.048Z,80.25
2018-11-29T12:19:06.919Z,80.15
2018-11-29T12:21:34.737Z,80.29
2018-11-29T12:24:02.565Z,80.00
2018-11-29T12:26:30.299Z,79.91
2018-11-29T12:28:58.479Z,79.90
2018-11-29T12:31:26.342Z,79.80
2018-11-29T12:33:54.196Z,79.96
2018-11-29T12:36:22.086Z,79.29
2018-11-29T12:38:49.945Z,79.55
2018-11-29T12:41:17.696Z,79.64
2018-11-29T12:43:45.940Z,79.62
2018-11-29T12:46:14.147Z,79.69
2018-11-29T12:48:42.244Z,79.64
2018-11-29T12:51:10.111Z,79.50
2018-11-29T12:53:38.038Z,79.41
2018-11-29T12:56:06.298Z,79.52
2018-11-29T12:58:34.139Z,79.68
2018-11-29T13:01:02.090Z,79.67
2018-11-29T13:03:30.432Z,79.78
2018-11-29T13:05:58.311Z,79.78
2018-11-29T13:08:28.340Z,79.59
2018-11-29T13:10:56.249Z,79.81
2018-11-29T13:13:27.499Z,79.74
2018-11-29T13:15:51.941Z,79.55
2018-11-29T13:18:19.820Z,79.90
2018-11-29T13:20:48.574Z,79.51
2018-11-29T13:23:16.888Z,79.82
2018-11-29T13:25:45.752Z,79.87
2018-11-29T13:28:13.924Z,79.78
2018-11-29T13:30:41.743Z,79.55
2018-11-29T13:33:10.564Z,79.60
2018-11-29T13:35:39.367Z,79.41
2018-11-29T13:38:10.687Z,79.15
2018-11-29T13:40:39.157Z,79.33
2018-11-29T13:43:07.034Z,79.50
2018-11-29T13:45:41.334Z,79.28
2018-11-29T13:48:10.253Z,79.45
2018-11-29T13:50:38.877Z,79.55
2018-11-29T13:53:06.787Z,79.79
2018-11-29T13:55:34.676Z,79.83
2018-11-29T13:58:04.205Z,79.55
2018-11-29T14:00:32.096Z,79.53
2018-11-29T14:03:08.823Z,79.61
2018-11-29T14:05:38.669Z,79.45
2018-11-29T14:08:07.503Z,78.65
2018-11-29T14:10:35.458Z,79.30
2018-11-29T14:13:03.346Z,79.67
2018-11-29T14:15:31.229Z,79.61
2018-11-29T14:17:59.023Z,79.67
2018-11-29T14:20:26.843Z,79.66
2018-11-29T14:22:54.752Z,79.73
2018-11-29T14:25:22.671Z,79.77
2018-11-29T14:27:51.682Z,79.88
2018-11-29T14:30:27.924Z,79.42
2018-11-29T14:32:56.844Z,79.59
2018-11-29T14:35:24.658Z,79.59
2018-11-29T14:37:52.491Z,79.54
2018-11-29T14:40:22.526Z,79.83
2018-11-29T14:42:50.770Z,79.58
2018-11-29T14:45:19.807Z,79.69
2018-11-29T14:47:47.696Z,79.61
2018-11-29T14:50:36.947Z,79.59
2018-11-29T14:53:05.372Z,79.93
2018-11-29T14:55:33.243Z,79.59
2018-11-29T14:58:01.189Z,79.27
2018-11-29T15:00:29.165Z,78.91
2018-11-29T15:02:57.928Z,78.48
2018-11-29T15:05:28.074Z,78.84
2018-11-29T15:07:56.347Z,79.37
2018-11-29T15:10:24.195Z,78.99
2018-11-29T15:12:52.122Z,79.24
2018-11-29T15:15:20.000Z,79.16
2018-11-29T15:17:48.831Z,79.04
2018-11-29T15:20:19.951Z,78.67
2018-11-29T15:22:47.832Z,78.58
2018-11-29T15:25:15.610Z,78.64
2018-11-29T15:27:43.429Z,78.36
2018-11-29T15:30:12.891Z,78.45
2018-11-29T15:32:40.672Z,78.59
2018-11-29T15:35:08.851Z,78.28
2018-11-29T15:37:36.717Z,78.06
2018-11-29T15:40:06.932Z,78.09
2018-11-29T15:42:34.863Z,78.23
2018-11-29T15:45:02.799Z,77.96
2018-11-29T15:47:30.600Z,77.74
2018-11-29T15:49:58.431Z,78.15
2018-11-29T15:52:26.220Z,77.81
2018-11-29T15:54:54.024Z,77.56
2018-11-29T15:57:21.789Z,77.71
2018-11-29T15:59:49.551Z,77.28
2018-11-29T16:02:17.392Z,77.39
2018-11-29T16:04:45.304Z,77.23
2018-11-29T16:07:13.011Z,76.98
2018-11-29T16:09:40.792Z,76.94
2018-11-29T16:12:08.605Z,76.78
2018-11-29T16:14:36.442Z,76.73
2018-11-29T16:17:04.279Z,76.54
2018-11-29T16:19:32.043Z,76.48
2018-11-29T16:21:59.848Z,76.28
2018-11-29T16:24:27.974Z,76.48
2018-11-29T16:26:55.818Z,76.21
2018-11-29T16:29:23.649Z,76.40
2018-11-29T16:31:51.532Z,76.27
2018-11-29T16:34:19.455Z,76.16
2018-11-29T16:36:47.308Z,75.93
2018-11-29T16:39:15.140Z,76.06
2018-11-29T16:41:43.865Z,76.23
2018-11-29T16:44:11.720Z,76.25
2018-11-29T16:46:39.977Z,76.02
2018-11-29T16:49:08.438Z,75.88
2018-11-29T16:51:36.217Z,75.82
2018-11-29T16:54:04.051Z,75.71
2018-11-29T16:56:31.836Z,75.37
2018-11-29T16:58:59.588Z,75.37
2018-11-29T17:01:27.382Z,75.21
2018-11-29T17:03:55.135Z,75.10
2018-11-29T17:06:22.924Z,74.87
2018-11-29T17:08:50.759Z,75.01
2018-11-29T17:11:18.564Z,74.41
2018-11-29T17:13:46.305Z,74.49
2018-11-29T17:16:14.127Z,74.21
2018-11-29T17:18:42.888Z,74.24
2018-11-29T17:21:10.738Z,74.02
2018-11-29T17:23:38.615Z,73.89
2018-11-29T17:26:06.520Z,73.83
2018-11-29T17:28:34.488Z,73.78
2018-11-29T17:31:02.284Z,73.62
2018-11-29T17:33:30.097Z,73.38
2018-11-29T17:35:58.532Z,73.51
2018-11-29T17:38:26.503Z,73.70
2018-11-29T17:40:54.335Z,73.67
2018-11-29T17:43:22.763Z,73.27
2018-11-29T17:45:50.655Z,73.35
2018-11-29T17:48:18.466Z,73.08
2018-11-29T17:50:46.241Z,73.09
2018-11-29T17:53:14.057Z,73.41
2018-11-29T17:55:41.885Z,73.34
2018-11-29T17:58:11.116Z,73.48
2018-11-29T18:00:39.076Z,72.95
2018-11-29T18:03:07.532Z,73.08
2018-11-29T18:05:35.313Z,73.01
2018-11-29T18:08:03.187Z,73.17
2018-11-29T18:10:33.496Z,72.96
2018-11-29T18:13:14.890Z,72.55
2018-11-29T18:15:42.893Z,72.36
2018-11-29T18:18:10.990Z,72.66
2018-11-29T18:20:39.284Z,71.96
2018-11-29T18:23:07.949Z,72.31
2018-11-29T18:25:35.858Z,72.08
2018-11-29T18:28:03.720Z,71.76
2018-11-29T18:30:31.529Z,72.22
2018-11-29T18:32:59.308Z,72.21
2018-11-29T18:35:27.135Z,72.30
2018-11-29T18:37:54.970Z,72.16
2018-11-29T18:40:22.841Z,72.17
2018-11-29T18:42:53.901Z,72.90
2018-11-29T18:45:21.800Z,72.21
2018-11-29T18:47:50.858Z,72.15
2018-11-29T18:50:19.651Z,72.06
2018-11-29T18:52:47.637Z,72.34
2018-11-29T18:55:15.735Z,72.17
2018-11-29T18:57:44.224Z,72.62
2018-11-29T19:00:28.257Z,72.53
2018-11-29T19:02:57.112Z,72.57
2018-11-29T19:05:24.019Z,72.69
2018-11-29T19:07:51.957Z,72.79
2018-11-29T19:10:20.199Z,72.90
2018-11-29T19:12:59.171Z,72.96
2018-11-29T19:15:27.128Z,72.79
2018-11-29T19:17:55.022Z,73.04
2018-11-29T19:20:22.899Z,72.99
2018-11-29T19:22:50.716Z,72.99
2018-11-29T19:25:19.435Z,72.95
2018-11-29T19:27:47.356Z,73.49
2018-11-29T19:30:19.969Z,73.17
2018-11-29T19:32:49.659Z,73.14
2018-11-29T19:35:17.476Z,72.86
2018-11-29T19:37:46.043Z,73.17
2018-11-29T19:40:14.795Z,73.15
2018-11-29T19:42:42.575Z,73.17
2018-11-29T19:45:11.894Z,73.11
2018-11-29T19:47:40.557Z,72.97
2018-11-29T19:50:13.556Z,72.61
2018-11-29T19:52:41.879Z,73.48
2018-11-29T19:55:11.570Z,73.34
2018-11-29T19:57:39.577Z,73.35
2018-11-29T20:00:10.043Z,73.18
2018-11-29T20:02:39.071Z,73.39
2018-11-29T20:05:08.779Z,73.40
2018-11-29T20:07:36.672Z,73.53
2018-11-29T20:10:06.291Z,73.41
2018-11-29T20:12:34.123Z,73.34
2018-11-29T20:15:02.077Z,73.14
2018-11-29T20:17:30.151Z,73.09
2018-11-29T20:19:58.159Z,73.14
2018-11-29T20:22:27.341Z,72.93
2018-11-29T20:24:55.201Z,73.26
2018-11-29T20:27:22.968Z,73.27
2018-11-29T20:29:51.064Z,73.41
2018-11-29T20:32:18.885Z,73.50
2018-11-29T20:34:46.690Z,73.37
2018-11-29T20:37:15.378Z,73.37
2018-11-29T20:39:43.181Z,73.31
2018-11-29T20:42:12.764Z,73.31
2018-11-29T20:44:40.541Z,73.14
2018-11-29T20:47:08.308Z,73.43
2018-11-29T20:49:36.055Z,73.48
2018-11-29T20:52:03.916Z,73.52
2018-11-29T20:54:31.699Z,73.63
2018-11-29T20:56:59.463Z,73.70
2018-11-29T20:59:27.211Z,73.73
2018-11-29T21:01:55.018Z,73.96
2018-11-29T21:04:22.907Z,74.21
2018-11-29T21:06:50.693Z,73.84
2018-11-29T21:09:18.473Z,74.71
2018-11-29T21:11:47.878Z,74.44
2018-11-29T21:14:14.118Z,74.14
2018-11-29T21:16:41.900Z,74.66
2018-11-29T21:19:09.692Z,74.56
2018-11-29T21:21:37.464Z,74.75
2018-11-29T21:24:05.731Z,75.22
2018-11-29T21:26:33.457Z,74.98
2018-11-29T21:29:01.273Z,75.15
2018-11-29T21:31:29.020Z,75.52
2018-11-29T21:33:56.889Z,75.44
2018-11-29T21:36:24.731Z,75.27
2018-11-29T21:38:52.524Z,75.41
2018-11-29T21:41:20.297Z,75.38
2018-11-29T21:43:48.130Z,75.53
2018-11-29T21:46:15.932Z,75.36
2018-11-29T21:48:43.735Z,75.70
2018-11-29T21:51:11.473Z,75.36
2018-11-29T21:53:39.323Z,75.19
2018-11-29T21:56:07.157Z,75.58
2018-11-29T21:58:35.805Z,75.75
2018-11-29T22:01:03.632Z,75.60
2018-11-29T22:03:31.406Z,75.53
2018-11-29T22:05:59.157Z,75.04
2018-11-29T22:08:27.005Z,75.29
2018-11-29T22:10:54.915Z,74.81
2018-11-29T22:13:22.737Z,75.09
2018-11-29T22:15:50.523Z,75.49
2018-11-29T22:18:20.602Z,75.26
2018-11-29T22:20:55.769Z,75.24
2018-11-29T22:23:23.582Z,75.18
2018-11-29T22:25:51.720Z,75.10
2018-11-29T22:28:19.927Z,74.82
2018-11-29T22:30:47.761Z,74.86
2018-11-29T22:33:15.543Z,75.42
2018-11-29T22:35:44.140Z,75.56
2018-11-29T22:38:11.968Z,75.95
2018-11-29T22:40:39.927Z,76.03
2018-11-29T22:43:07.699Z,75.48
2018-11-29T22:45:35.504Z,75.62
2018-11-29T22:48:03.385Z,75.29
2018-11-29T22:50:31.179Z,75.69
2018-11-29T22:52:58.971Z,75.38
2018-11-29T22:55:26.820Z,75.31
2018-11-29T22:57:54.648Z,75.20
2018-11-29T23:00:22.592Z,75.31
2018-11-29T23:02:50.399Z,75.41
2018-11-29T23:05:18.309Z,75.34
2018-11-29T23:07:46.117Z,75.41
2018-11-29T23:10:13.947Z,75.54
2018-11-29T23:12:41.763Z,75.98
2018-11-29T23:15:10.954Z,75.69
2018-11-29T23:17:38.767Z,76.16
2018-11-29T23:20:10.896Z,76.09
2018-11-29T23:22:39.296Z,75.92
2018-11-29T23:25:08.924Z,76.23
2018-11-29T23:27:36.746Z,76.00
2018-11-29T23:30:07.520Z,75.97
2018-11-29T23:32:35.364Z,75.89
2018-11-29T23:35:03.229Z,75.92
2018-11-29T23:37:31.116Z,76.38
2018-11-29T23:39:58.909Z,76.23
2018-11-29T23:42:26.702Z,76.62
2018-11-29T23:44:54.562Z,76.71
2018-11-29T23:47:22.439Z,76.61
2018-11-29T23:49:50.224Z,76.75
2018-11-29T23:52:18.069Z,76.42
2018-11-29T23:54:45.876Z,76.16
2018-11-29T23:57:13.720Z,76.75
2018-11-29T23:59:41.563Z,76.87
